Santa Maria, Brazil
Current Conditions -  °F | °C
As of 12:00 PM on Friday 28 Nov 2014 (Local Time) from SBSM Reporting Station
Clear Clear  
Wind Chill: 77°   Ceiling: Unl
Heat Index: 79°   Visibility: 6mi
Dew Point: 61°   Wind: 15mph
Humidity: 57%   Direction: 100°E
Pressure: 30"   Gusts: NA
Location:  29.69°S, 53.83°W
Report Text: SBSM 281400Z 10013KT CAVOK 25/16 Q1016
Loading
Personal Weather Stations






























Interactive Weather Map New forecast layout! Learn more

10-Day Weather Forecast

Advertisements
Track Severe Weather on mobile